createdAt,value
2019-02-27T00:01:53.229Z,6.20
2019-02-27T00:04:21.366Z,6.20
2019-02-27T00:06:49.777Z,6.20
2019-02-27T00:09:17.819Z,6.10
2019-02-27T00:11:46.814Z,6.20
2019-02-27T00:14:14.814Z,6.10
2019-02-27T00:16:44.624Z,6.10
2019-02-27T00:19:13.201Z,6.10
2019-02-27T00:21:43.562Z,6.00
2019-02-27T00:24:11.182Z,6.00
2019-02-27T00:26:39.530Z,5.90
2019-02-27T00:29:09.442Z,5.90
2019-02-27T00:31:37.659Z,5.80
2019-02-27T00:34:05.872Z,5.80
2019-02-27T00:36:33.911Z,5.70
2019-02-27T00:39:02.277Z,5.70
2019-02-27T00:41:30.574Z,5.70
2019-02-27T00:44:01.079Z,5.70
2019-02-27T00:46:28.652Z,5.60
2019-02-27T00:48:59.050Z,5.60
2019-02-27T00:51:26.750Z,5.60
2019-02-27T00:53:55.920Z,5.50
2019-02-27T00:56:25.357Z,5.50
2019-02-27T00:58:53.529Z,5.50
2019-02-27T01:01:21.684Z,5.50
2019-02-27T01:03:49.809Z,5.50
2019-02-27T01:06:17.950Z,5.40
2019-02-27T01:08:46.449Z,5.40
2019-02-27T01:11:18.145Z,5.40
2019-02-27T01:13:44.733Z,5.40
2019-02-27T01:16:16.971Z,5.40
2019-02-27T01:18:42.694Z,5.40
2019-02-27T01:21:10.861Z,5.40
2019-02-27T01:23:38.877Z,5.40
2019-02-27T01:26:06.917Z,5.30
2019-02-27T01:28:34.989Z,5.40
2019-02-27T01:31:03.119Z,5.40
2019-02-27T01:33:31.153Z,5.30
2019-02-27T01:35:59.097Z,5.30
2019-02-27T01:38:27.159Z,5.30
2019-02-27T01:40:55.093Z,5.30
2019-02-27T01:43:23.637Z,5.20
2019-02-27T01:45:51.904Z,5.40
2019-02-27T01:48:21.601Z,5.30
2019-02-27T01:50:49.913Z,5.40
2019-02-27T01:53:17.945Z,5.50
2019-02-27T01:55:46.129Z,5.50
2019-02-27T01:58:14.153Z,5.50
2019-02-27T02:00:42.567Z,5.50
2019-02-27T02:03:13.381Z,5.50
2019-02-27T02:05:41.673Z,5.50
2019-02-27T02:08:13.483Z,5.50
2019-02-27T02:10:41.489Z,5.40
2019-02-27T02:13:22.905Z,5.40
2019-02-27T02:16:23.261Z,5.30
2019-02-27T02:19:36.462Z,5.30
2019-02-27T02:22:41.271Z,5.20
2019-02-27T02:25:27.993Z,5.20
2019-02-27T02:28:28.206Z,5.10
2019-02-27T02:31:17.318Z,5.10
2019-02-27T02:34:13.470Z,5.10
2019-02-27T02:37:02.877Z,5.10
2019-02-27T02:39:58.654Z,5.00
2019-02-27T02:42:51.095Z,5.00
2019-02-27T02:45:45.618Z,4.90
2019-02-27T02:48:40.332Z,5.00
2019-02-27T02:51:54.969Z,4.90
2019-02-27T02:55:12.739Z,5.00
2019-02-27T02:58:11.444Z,4.90
2019-02-27T03:01:21.045Z,4.90
2019-02-27T03:04:34.661Z,4.90
2019-02-27T03:07:44.729Z,4.80
2019-02-27T03:10:23.704Z,4.70
2019-02-27T03:13:26.421Z,4.70
2019-02-27T03:16:34.042Z,4.70
2019-02-27T03:19:43.360Z,4.60
2019-02-27T03:22:29.125Z,4.60
2019-02-27T03:25:32.334Z,4.60
2019-02-27T03:28:40.609Z,4.50
2019-02-27T03:31:34.213Z,4.50
2019-02-27T03:34:29.983Z,4.50
2019-02-27T03:37:34.636Z,4.50
2019-02-27T03:40:32.394Z,4.40
2019-02-27T03:43:19.780Z,4.40
2019-02-27T03:46:31.758Z,4.40
2019-02-27T03:49:46.418Z,4.30
2019-02-27T03:52:58.602Z,4.30
2019-02-27T03:56:09.719Z,4.30
2019-02-27T03:59:06.302Z,4.20
2019-02-27T04:02:30.015Z,4.20
2019-02-27T04:05:22.711Z,4.20
2019-02-27T04:08:10.671Z,4.20
2019-02-27T04:10:39.027Z,4.20
2019-02-27T04:13:07.154Z,4.20
2019-02-27T04:15:35.837Z,4.20
2019-02-27T04:18:03.064Z,4.20
2019-02-27T04:20:31.222Z,4.20
2019-02-27T04:22:59.443Z,4.20
2019-02-27T04:25:31.060Z,4.20
2019-02-27T04:27:57.424Z,4.20
2019-02-27T04:30:25.454Z,4.20
2019-02-27T04:32:53.472Z,4.20
2019-02-27T04:35:21.581Z,4.20
2019-02-27T04:37:53.937Z,4.20
2019-02-27T04:40:19.374Z,4.20
2019-02-27T04:42:47.306Z,4.20
2019-02-27T04:45:15.361Z,4.20
2019-02-27T04:47:43.310Z,4.20
2019-02-27T04:50:11.904Z,4.20
2019-02-27T04:52:40.165Z,4.20
2019-02-27T04:55:08.231Z,4.20
2019-02-27T04:57:36.181Z,4.10
2019-02-27T05:00:04.343Z,4.10
2019-02-27T05:02:32.523Z,4.10
2019-02-27T05:05:00.662Z,4.10
2019-02-27T05:07:28.629Z,4.10
2019-02-27T05:09:56.757Z,4.10
2019-02-27T05:12:24.874Z,4.00
2019-02-27T05:14:52.798Z,4.00
2019-02-27T05:17:21.444Z,4.00
2019-02-27T05:19:51.994Z,3.90
2019-02-27T05:22:20.250Z,4.00
2019-02-27T05:24:48.305Z,4.00
2019-02-27T05:27:16.367Z,4.00
2019-02-27T05:29:44.294Z,4.00
2019-02-27T05:32:12.366Z,4.00
2019-02-27T05:34:40.525Z,4.00
2019-02-27T05:37:08.459Z,3.90
2019-02-27T05:39:36.532Z,3.90
2019-02-27T05:42:06.371Z,3.90
2019-02-27T05:44:35.226Z,3.90
2019-02-27T05:47:03.369Z,3.90
2019-02-27T05:49:31.625Z,3.80
2019-02-27T05:51:59.734Z,3.90
2019-02-27T05:54:29.917Z,3.90
2019-02-27T05:56:58.157Z,3.90
2019-02-27T05:59:28.925Z,3.80
2019-02-27T06:01:56.968Z,3.80
2019-02-27T06:04:29.025Z,3.80
2019-02-27T06:06:56.953Z,3.80
2019-02-27T06:09:24.970Z,3.90
2019-02-27T06:11:52.923Z,3.90
2019-02-27T06:14:21.996Z,3.80
2019-02-27T06:16:50.102Z,3.80
2019-02-27T06:19:18.146Z,3.70
2019-02-27T06:21:46.107Z,3.70
2019-02-27T06:24:14.403Z,3.70
2019-02-27T06:26:42.967Z,3.70
2019-02-27T06:29:11.366Z,3.70
2019-02-27T06:31:39.598Z,3.70
2019-02-27T06:34:07.896Z,3.70
2019-02-27T06:36:41.985Z,3.70
2019-02-27T06:39:08.744Z,3.80
2019-02-27T06:41:37.095Z,3.80
2019-02-27T06:44:05.360Z,3.80
2019-02-27T06:46:34.446Z,3.80
2019-02-27T06:49:03.840Z,3.90
2019-02-27T06:51:33.350Z,3.90
2019-02-27T06:54:02.570Z,3.90
2019-02-27T06:56:31.090Z,4.00
2019-02-27T06:59:00.261Z,4.00
2019-02-27T07:01:28.611Z,4.00
2019-02-27T07:03:57.349Z,4.10
2019-02-27T07:06:25.959Z,4.10
2019-02-27T07:08:54.161Z,4.20
2019-02-27T07:11:22.533Z,4.20
2019-02-27T07:13:50.945Z,4.30
2019-02-27T07:16:20.562Z,4.40
2019-02-27T07:18:49.645Z,4.40
2019-02-27T07:21:17.833Z,4.50
2019-02-27T07:23:45.879Z,4.50
2019-02-27T07:26:15.797Z,4.60
2019-02-27T07:28:45.131Z,4.70
2019-02-27T07:31:17.519Z,4.70
2019-02-27T07:33:43.465Z,4.90
2019-02-27T07:36:11.794Z,5.00
2019-02-27T07:38:40.478Z,5.10
2019-02-27T07:41:08.557Z,5.20
2019-02-27T07:43:36.769Z,5.40
2019-02-27T07:46:05.059Z,5.50
2019-02-27T07:48:33.473Z,5.70
2019-02-27T07:51:01.502Z,5.80
2019-02-27T07:53:29.464Z,5.90
2019-02-27T07:55:57.511Z,6.10
2019-02-27T07:58:25.922Z,6.20
2019-02-27T08:00:54.090Z,6.40
2019-02-27T08:03:22.185Z,6.60
2019-02-27T08:05:54.575Z,6.80
2019-02-27T08:08:23.759Z,6.90
2019-02-27T08:10:52.464Z,7.10
2019-02-27T08:13:20.505Z,7.20
2019-02-27T08:15:49.146Z,7.50
2019-02-27T08:18:27.103Z,7.70
2019-02-27T08:20:48.382Z,8.00
2019-02-27T08:23:16.362Z,8.40
2019-02-27T08:25:46.008Z,9.20
2019-02-27T08:28:17.226Z,10.30
2019-02-27T08:30:44.502Z,11.30
2019-02-27T08:33:12.555Z,12.30
2019-02-27T08:35:40.841Z,13.30
2019-02-27T08:38:08.880Z,14.20
2019-02-27T08:40:37.018Z,15.10
2019-02-27T08:43:05.365Z,15.90
2019-02-27T08:45:33.537Z,16.40
2019-02-27T08:48:01.913Z,17.00
2019-02-27T08:50:31.654Z,17.20
2019-02-27T08:52:59.850Z,17.80
2019-02-27T08:55:31.841Z,18.20
2019-02-27T08:57:59.862Z,18.50
2019-02-27T09:00:29.320Z,18.60
2019-02-27T09:03:02.409Z,18.70
2019-02-27T09:05:27.466Z,18.90
2019-02-27T09:07:55.551Z,19.20
2019-02-27T09:10:26.881Z,19.40
2019-02-27T09:13:04.376Z,19.70
2019-02-27T09:15:24.560Z,20.10
2019-02-27T09:17:52.629Z,20.50
2019-02-27T09:20:20.773Z,20.60
2019-02-27T09:22:50.567Z,20.90
2019-02-27T09:25:23.555Z,20.90
2019-02-27T09:27:48.685Z,21.10
2019-02-27T09:30:16.890Z,21.10
2019-02-27T09:32:46.067Z,21.30
2019-02-27T09:35:15.123Z,21.80
2019-02-27T09:37:43.286Z,22.00
2019-02-27T09:40:14.501Z,22.10
2019-02-27T09:42:42.437Z,22.60
2019-02-27T09:45:29.080Z,22.70
2019-02-27T09:47:59.970Z,22.70
2019-02-27T09:50:39.939Z,23.20
2019-02-27T09:53:08.393Z,23.50
2019-02-27T09:55:36.558Z,23.80
2019-02-27T09:58:10.090Z,24.10
2019-02-27T10:00:38.339Z,24.50
2019-02-27T10:03:07.306Z,24.70
2019-02-27T10:05:36.669Z,24.40
2019-02-27T10:08:07.574Z,24.80
2019-02-27T10:10:35.777Z,25.00
2019-02-27T10:13:08.430Z,25.20
2019-02-27T10:15:37.056Z,25.20
2019-02-27T10:18:06.668Z,25.20
2019-02-27T10:20:36.796Z,25.10
2019-02-27T10:23:04.881Z,25.00
2019-02-27T10:25:36.106Z,24.80
2019-02-27T10:28:04.831Z,24.70
2019-02-27T10:30:33.427Z,24.80
2019-02-27T10:33:03.259Z,24.60
2019-02-27T10:35:35.157Z,24.40
2019-02-27T10:38:03.562Z,24.40
2019-02-27T10:40:31.941Z,24.30
2019-02-27T10:43:00.351Z,24.10
2019-02-27T10:45:28.917Z,24.10
2019-02-27T10:48:00.652Z,24.10
2019-02-27T10:50:29.319Z,23.80
2019-02-27T10:52:57.989Z,23.50
2019-02-27T10:55:26.982Z,23.70
2019-02-27T10:57:55.877Z,23.80
2019-02-27T11:00:28.764Z,23.80
2019-02-27T11:02:57.532Z,23.70
2019-02-27T11:05:26.971Z,23.50
2019-02-27T11:07:55.314Z,23.70
2019-02-27T11:10:27.922Z,23.90
2019-02-27T11:12:56.585Z,24.30
2019-02-27T11:15:24.739Z,24.60
2019-02-27T11:17:53.532Z,24.80
2019-02-27T11:20:22.104Z,24.90
2019-02-27T11:22:56.093Z,25.20
2019-02-27T11:25:24.443Z,25.30
2019-02-27T11:27:52.593Z,25.30
2019-02-27T11:30:23.005Z,25.10
2019-02-27T11:32:50.973Z,25.00
2019-02-27T11:35:22.108Z,24.90
2019-02-27T11:37:51.581Z,24.90
2019-02-27T11:40:20.552Z,25.10
2019-02-27T11:42:48.705Z,25.20
2019-02-27T11:45:16.934Z,25.30
2019-02-27T11:47:48.513Z,24.80
2019-02-27T11:50:17.890Z,24.60
2019-02-27T11:52:49.149Z,24.60
2019-02-27T11:55:16.935Z,24.50
2019-02-27T11:57:48.629Z,24.70
2019-02-27T12:00:23.844Z,24.40
2019-02-27T12:02:51.958Z,24.40
2019-02-27T12:05:19.977Z,24.50
2019-02-27T12:07:51.272Z,24.70
2019-02-27T12:10:20.381Z,24.60
2019-02-27T12:12:49.624Z,24.50
2019-02-27T12:15:17.403Z,24.30
2019-02-27T12:17:46.991Z,24.40
2019-02-27T12:20:19.624Z,24.40
2019-02-27T12:22:48.025Z,24.40
2019-02-27T12:25:16.557Z,24.40
2019-02-27T12:27:49.260Z,24.50
2019-02-27T12:30:19.959Z,24.50
2019-02-27T12:32:48.974Z,24.40
2019-02-27T12:35:19.581Z,24.40
2019-02-27T12:37:48.130Z,24.60
2019-02-27T12:40:17.303Z,24.60
2019-02-27T12:42:49.823Z,24.60
2019-02-27T12:45:19.451Z,24.60
2019-02-27T12:47:47.650Z,24.50
2019-02-27T12:50:20.030Z,24.60
2019-02-27T12:52:48.232Z,24.70
2019-02-27T12:55:20.356Z,24.70
2019-02-27T12:57:51.899Z,24.90
2019-02-27T13:00:19.113Z,25.00
2019-02-27T13:02:46.345Z,25.00
2019-02-27T13:05:20.051Z,24.60
2019-02-27T13:07:48.256Z,24.60
2019-02-27T13:10:17.605Z,24.50
2019-02-27T13:12:46.122Z,24.50
2019-02-27T13:15:21.350Z,24.40
2019-02-27T13:17:49.960Z,24.30
2019-02-27T13:20:20.473Z,24.50
2019-02-27T13:22:49.052Z,24.50
2019-02-27T13:25:17.687Z,24.60
2019-02-27T13:27:48.187Z,24.80
2019-02-27T13:30:17.551Z,24.90
2019-02-27T13:32:45.926Z,25.00
2019-02-27T13:35:14.726Z,24.90
2019-02-27T13:37:44.514Z,24.80
2019-02-27T13:40:14.991Z,24.70
2019-02-27T13:42:43.409Z,24.30
2019-02-27T13:45:14.481Z,24.30
2019-02-27T13:47:42.626Z,24.30
2019-02-27T13:50:11.418Z,24.10
2019-02-27T13:52:41.097Z,23.80
2019-02-27T13:55:11.152Z,23.80
2019-02-27T13:57:39.461Z,24.10
2019-02-27T14:00:11.617Z,24.20
2019-02-27T14:02:42.363Z,24.40
2019-02-27T14:05:11.242Z,24.70
2019-02-27T14:07:39.371Z,25.00
2019-02-27T14:10:07.782Z,25.10
2019-02-27T14:12:36.438Z,25.20
2019-02-27T14:15:05.871Z,25.30
2019-02-27T14:17:41.373Z,25.20
2019-02-27T14:20:10.654Z,25.30
2019-02-27T14:22:40.680Z,25.50
2019-02-27T14:25:10.701Z,25.40
2019-02-27T14:27:40.378Z,25.50
2019-02-27T14:30:12.347Z,25.70
2019-02-27T14:32:40.513Z,25.80
2019-02-27T14:35:08.641Z,25.50
2019-02-27T14:37:40.949Z,25.30
2019-02-27T14:40:11.533Z,25.20
2019-02-27T14:42:39.697Z,25.10
2019-02-27T14:45:11.873Z,25.10
2019-02-27T14:47:43.870Z,25.30
2019-02-27T14:50:13.718Z,25.50
2019-02-27T14:52:41.878Z,25.60
2019-02-27T14:55:10.806Z,25.90
2019-02-27T14:57:38.981Z,25.80
2019-02-27T15:00:12.331Z,25.70
2019-02-27T15:02:40.462Z,25.70
2019-02-27T15:05:09.138Z,25.60
2019-02-27T15:07:37.458Z,25.50
2019-02-27T15:10:07.217Z,25.20
2019-02-27T15:12:36.281Z,25.00
2019-02-27T15:15:06.801Z,24.60
2019-02-27T15:17:35.443Z,24.40
2019-02-27T15:20:05.709Z,24.20
2019-02-27T15:22:40.102Z,24.10
2019-02-27T15:25:09.893Z,23.70
2019-02-27T15:27:37.853Z,23.30
2019-02-27T15:30:06.717Z,23.00
2019-02-27T15:32:34.669Z,22.70
2019-02-27T15:35:06.722Z,22.40
2019-02-27T15:37:37.180Z,22.20
2019-02-27T15:40:06.010Z,22.00
2019-02-27T15:42:34.055Z,21.70
2019-02-27T15:45:02.291Z,21.70
2019-02-27T15:47:33.735Z,21.40
2019-02-27T15:50:02.760Z,21.30
2019-02-27T15:52:30.971Z,21.10
2019-02-27T15:54:59.273Z,21.10
2019-02-27T15:57:28.201Z,20.80
2019-02-27T15:59:59.663Z,20.80
2019-02-27T16:02:29.235Z,20.60
2019-02-27T16:04:57.617Z,20.50
2019-02-27T16:07:25.699Z,20.40
2019-02-27T16:09:54.097Z,20.30
2019-02-27T16:12:26.015Z,20.30
2019-02-27T16:14:54.561Z,20.10
2019-02-27T16:17:22.658Z,20.10
2019-02-27T16:19:50.701Z,20.00
2019-02-27T16:22:18.618Z,19.90
2019-02-27T16:24:50.601Z,19.90
2019-02-27T16:27:18.666Z,19.70
2019-02-27T16:29:46.829Z,19.60
2019-02-27T16:32:14.860Z,19.50
2019-02-27T16:34:42.926Z,19.40
2019-02-27T16:37:14.544Z,19.20
2019-02-27T16:39:45.603Z,19.00
2019-02-27T16:42:12.465Z,18.90
2019-02-27T16:44:40.729Z,18.60
2019-02-27T16:47:08.929Z,18.50
2019-02-27T16:49:41.492Z,18.20
2019-02-27T16:52:10.089Z,18.00
2019-02-27T16:54:38.627Z,17.80
2019-02-27T16:57:06.573Z,17.60
2019-02-27T16:59:34.845Z,17.40
2019-02-27T17:02:05.764Z,17.20
2019-02-27T17:04:35.015Z,17.00
2019-02-27T17:07:03.396Z,16.80
2019-02-27T17:09:31.670Z,16.60
2019-02-27T17:12:00.238Z,16.40
2019-02-27T17:14:32.229Z,16.20
2019-02-27T17:17:00.801Z,16.00
2019-02-27T17:19:29.416Z,15.90
2019-02-27T17:21:58.756Z,15.80
2019-02-27T17:24:27.745Z,15.60
2019-02-27T17:26:56.677Z,15.50
2019-02-27T17:29:26.488Z,15.30
2019-02-27T17:31:56.424Z,15.10
2019-02-27T17:34:24.870Z,14.90
2019-02-27T17:36:57.696Z,14.80
2019-02-27T17:39:28.963Z,14.80
2019-02-27T17:41:55.885Z,14.70
2019-02-27T17:44:24.264Z,14.60
2019-02-27T17:46:54.842Z,14.60
2019-02-27T17:49:25.487Z,14.30
2019-02-27T17:51:52.791Z,14.30
2019-02-27T17:54:22.033Z,14.20
2019-02-27T17:56:50.742Z,14.10
2019-02-27T17:59:19.277Z,14.00
2019-02-27T18:01:48.374Z,13.90
2019-02-27T18:04:16.873Z,13.80
2019-02-27T18:06:45.529Z,13.70
2019-02-27T18:09:13.976Z,13.60
2019-02-27T18:11:42.686Z,13.50
2019-02-27T18:14:11.019Z,13.50
2019-02-27T18:16:39.609Z,13.40
2019-02-27T18:19:07.907Z,13.30
2019-02-27T18:21:36.651Z,13.20
2019-02-27T18:24:05.046Z,13.20
2019-02-27T18:26:33.671Z,13.00
2019-02-27T18:29:04.345Z,13.00
2019-02-27T18:31:32.794Z,12.90
2019-02-27T18:34:01.662Z,12.90
2019-02-27T18:36:29.950Z,12.90
2019-02-27T18:39:01.638Z,12.80
2019-02-27T18:41:27.934Z,12.70
2019-02-27T18:43:56.274Z,12.60
2019-02-27T18:46:25.542Z,12.70
2019-02-27T18:48:53.681Z,12.50
2019-02-27T18:51:25.013Z,12.40
2019-02-27T18:53:53.381Z,12.40
2019-02-27T18:56:21.861Z,12.30
2019-02-27T18:58:51.989Z,12.20
2019-02-27T19:01:21.291Z,12.20
2019-02-27T19:03:51.351Z,12.00
2019-02-27T19:06:21.146Z,12.00
2019-02-27T19:08:49.617Z,11.90
2019-02-27T19:11:19.863Z,11.90
2019-02-27T19:13:47.989Z,11.90
2019-02-27T19:16:17.553Z,11.80
2019-02-27T19:18:46.281Z,11.80
2019-02-27T19:21:14.492Z,11.70
2019-02-27T19:23:42.640Z,11.70
2019-02-27T19:26:10.885Z,11.60
2019-02-27T19:28:41.358Z,11.60
2019-02-27T19:31:09.715Z,11.60
2019-02-27T19:33:38.088Z,11.50
2019-02-27T19:36:06.250Z,11.50
2019-02-27T19:38:35.867Z,11.40
2019-02-27T19:41:04.740Z,11.40
2019-02-27T19:43:33.061Z,11.30
2019-02-27T19:46:01.218Z,11.30
2019-02-27T19:48:29.680Z,11.20
2019-02-27T19:50:57.887Z,11.20
2019-02-27T19:53:26.160Z,11.20
2019-02-27T19:55:54.295Z,11.10
2019-02-27T19:58:23.737Z,11.10
2019-02-27T20:00:51.814Z,11.00
2019-02-27T20:03:20.446Z,11.20
2019-02-27T20:05:50.621Z,11.00
2019-02-27T20:08:19.573Z,10.90
2019-02-27T20:10:48.201Z,10.90
2019-02-27T20:13:16.833Z,10.80
2019-02-27T20:15:45.669Z,10.80
2019-02-27T20:18:14.559Z,10.90
2019-02-27T20:20:42.944Z,10.80
2019-02-27T20:23:11.083Z,10.70
2019-02-27T20:25:43.242Z,10.70
2019-02-27T20:28:09.341Z,10.70
2019-02-27T20:30:37.453Z,10.60
2019-02-27T20:33:05.578Z,10.70
2019-02-27T20:35:34.794Z,10.60
2019-02-27T20:38:03.021Z,10.60
2019-02-27T20:40:34.341Z,10.60
2019-02-27T20:43:01.807Z,10.60
2019-02-27T20:45:30.230Z,10.60
2019-02-27T20:48:01.712Z,10.50
2019-02-27T20:50:35.507Z,10.50
2019-02-27T20:53:04.069Z,10.40
2019-02-27T20:55:32.378Z,10.40
2019-02-27T20:58:01.038Z,10.40
2019-02-27T21:00:35.959Z,10.30
2019-02-27T21:03:02.356Z,10.30
2019-02-27T21:05:30.346Z,10.30
2019-02-27T21:08:02.037Z,10.20
2019-02-27T21:10:29.537Z,10.30
2019-02-27T21:12:57.301Z,10.20
2019-02-27T21:15:26.071Z,10.20
2019-02-27T21:17:57.794Z,10.10
2019-02-27T21:20:24.717Z,10.10
2019-02-27T21:22:53.006Z,10.00
2019-02-27T21:25:22.869Z,10.00
2019-02-27T21:27:51.402Z,10.00
2019-02-27T21:30:19.997Z,9.90
2019-02-27T21:32:48.603Z,9.90
2019-02-27T21:35:17.795Z,9.90
2019-02-27T21:37:46.673Z,9.90
2019-02-27T21:40:15.094Z,9.80
2019-02-27T21:42:43.461Z,9.80
2019-02-27T21:45:13.865Z,9.80
2019-02-27T21:47:42.233Z,9.80
2019-02-27T21:50:12.965Z,9.70
2019-02-27T21:52:41.386Z,9.70
2019-02-27T21:55:12.833Z,9.70
2019-02-27T21:57:40.312Z,9.70
2019-02-27T22:00:13.982Z,9.70
2019-02-27T22:02:42.816Z,9.70
2019-02-27T22:05:11.649Z,9.70
2019-02-27T22:07:40.028Z,9.70
2019-02-27T22:10:09.825Z,9.70
2019-02-27T22:12:38.061Z,9.60
2019-02-27T22:15:12.916Z,9.60
2019-02-27T22:17:41.389Z,9.60
2019-02-27T22:20:10.225Z,9.70
2019-02-27T22:22:42.384Z,9.70
2019-02-27T22:25:11.179Z,9.70
2019-02-27T22:27:39.597Z,9.70
2019-02-27T22:30:11.034Z,9.70
2019-02-27T22:32:41.328Z,9.80
2019-02-27T22:35:09.866Z,9.90
2019-02-27T22:37:37.864Z,10.00
2019-02-27T22:40:07.677Z,10.10
2019-02-27T22:42:35.781Z,10.20
2019-02-27T22:45:04.947Z,10.30
2019-02-27T22:47:33.231Z,10.30
2019-02-27T22:50:06.094Z,10.30
2019-02-27T22:52:31.469Z,10.30
2019-02-27T22:54:59.657Z,10.30
2019-02-27T22:57:27.630Z,10.40
2019-02-27T22:59:56.006Z,10.40
2019-02-27T23:02:24.195Z,10.30
2019-02-27T23:04:52.365Z,10.30
2019-02-27T23:07:21.384Z,10.30
2019-02-27T23:09:49.771Z,10.30
2019-02-27T23:12:17.935Z,10.30
2019-02-27T23:14:45.969Z,10.20
2019-02-27T23:17:14.117Z,10.10
2019-02-27T23:19:46.041Z,10.00
2019-02-27T23:22:12.296Z,10.00
2019-02-27T23:24:43.407Z,9.80
2019-02-27T23:27:10.190Z,9.80
2019-02-27T23:29:39.986Z,9.70
2019-02-27T23:32:08.761Z,9.60
2019-02-27T23:34:38.447Z,9.60
2019-02-27T23:37:06.522Z,9.40
2019-02-27T23:39:34.450Z,9.40
2019-02-27T23:42:02.664Z,9.40
2019-02-27T23:44:30.798Z,9.40
2019-02-27T23:46:58.827Z,9.50
2019-02-27T23:49:26.896Z,9.40
2019-02-27T23:51:54.826Z,9.30
2019-02-27T23:54:22.883Z,9.30
2019-02-27T23:56:51.912Z,9.30
2019-02-27T23:59:20.768Z,9.20
